Time;durP1;ratioP1;P1;durP2;ratioP2;P2;SDS_P1;SDS_P2;PMS_P1;PMS_P2;Temp;Humidity;BMP_temperature;BMP_pressure;BME280_temperature;BME280_humidity;BME280_pressure;Samples;Min_cycle;Max_cycle;Signal;HPM_P1;HPM_P2
2024/02/08 00:01:55;;;;;;;11.90;6.68;;;;;;;;;;5085671;28;20229;-76
2024/02/08 00:04:20;;;;;;;11.60;6.30;;;;;;;;;;5088944;28;20099;-76
2024/02/08 00:06:45;;;;;;;12.40;7.25;;;;;;;;;;5091417;28;20031;-76
2024/02/08 00:09:10;;;;;;;11.80;6.88;;;;;;;;;;5085960;28;20055;-76
2024/02/08 00:11:35;;;;;;;11.95;6.72;;;;;;;;;;5087965;28;20035;-76
2024/02/08 00:14:01;;;;;;;13.68;7.50;;;;;;;;;;5084888;28;20389;-76
2024/02/08 00:16:27;;;;;;;10.77;6.50;;;;;;;;;;5085859;28;20020;-76
2024/02/08 00:18:54;;;;;;;14.55;8.48;;;;;;;;;;5092050;28;20488;-75
2024/02/08 00:21:19;;;;;;;20.52;9.88;;;;;;;;;;5090857;28;20040;-75
2024/02/08 00:23:44;;;;;;;21.63;10.43;;;;;;;;;;5088734;28;20038;-76
2024/02/08 00:26:10;;;;;;;18.10;8.27;;;;;;;;;;5086229;28;20046;-76
2024/02/08 00:28:35;;;;;;;11.57;6.65;;;;;;;;;;5088495;28;20040;-76
2024/02/08 00:31:02;;;;;;;9.43;5.78;;;;;;;;;;5082651;28;20040;-76
2024/02/08 00:33:27;;;;;;;11.23;6.22;;;;;;;;;;5092121;28;20039;-76
2024/02/08 00:35:53;;;;;;;9.82;5.60;;;;;;;;;;5089057;28;20504;-76
2024/02/08 00:38:18;;;;;;;10.00;5.68;;;;;;;;;;5091046;28;20036;-75
2024/02/08 00:40:43;;;;;;;13.18;7.72;;;;;;;;;;5084335;28;20450;-76
2024/02/08 00:43:08;;;;;;;17.52;8.73;;;;;;;;;;5083604;28;20033;-76
2024/02/08 00:45:34;;;;;;;18.27;8.45;;;;;;;;;;5084729;28;20024;-76
2024/02/08 00:47:59;;;;;;;14.45;7.07;;;;;;;;;;5090395;28;20034;-75
2024/02/08 00:50:25;;;;;;;13.68;6.10;;;;;;;;;;5089907;28;20477;-75
2024/02/08 00:52:52;;;;;;;11.10;6.68;;;;;;;;;;5086277;28;20075;-76
2024/02/08 00:55:17;;;;;;;12.52;6.47;;;;;;;;;;5085480;28;20032;-76
2024/02/08 00:57:43;;;;;;;11.98;6.22;;;;;;;;;;5086641;28;20041;-76
2024/02/08 01:00:08;;;;;;;9.88;5.70;;;;;;;;;;5086649;28;20032;-76
2024/02/08 01:02:33;;;;;;;10.57;6.55;;;;;;;;;;5091404;28;20071;-76
2024/02/08 01:04:59;;;;;;;14.13;7.25;;;;;;;;;;5086579;28;20411;-76
2024/02/08 01:07:24;;;;;;;12.88;6.78;;;;;;;;;;5090234;28;20465;-76
2024/02/08 01:09:49;;;;;;;11.50;5.88;;;;;;;;;;5082925;28;20039;-76
2024/02/08 01:12:14;;;;;;;9.52;5.30;;;;;;;;;;5084565;28;20024;-76
2024/02/08 01:14:42;;;;;;;11.65;7.40;;;;;;;;;;5091353;28;20050;-76
2024/02/08 01:17:07;;;;;;;9.95;5.40;;;;;;;;;;5090062;28;20100;-76
2024/02/08 01:19:33;;;;;;;10.95;5.25;;;;;;;;;;5088651;28;20476;-76
2024/02/08 01:21:58;;;;;;;12.90;7.15;;;;;;;;;;5084431;28;20054;-76
2024/02/08 01:24:24;;;;;;;14.88;6.68;;;;;;;;;;5085399;28;20028;-76
2024/02/08 01:26:49;;;;;;;11.57;7.10;;;;;;;;;;5084350;28;20085;-76
2024/02/08 01:29:15;;;;;;;12.50;6.70;;;;;;;;;;5090106;28;20028;-76
2024/02/08 01:31:40;;;;;;;11.50;6.43;;;;;;;;;;5088575;28;20523;-76
2024/02/08 01:34:07;;;;;;;10.80;6.22;;;;;;;;;;5086682;28;20107;-75
2024/02/08 01:36:32;;;;;;;15.20;7.07;;;;;;;;;;5087743;28;20055;-75
2024/02/08 01:38:58;;;;;;;11.00;6.03;;;;;;;;;;5084729;28;20653;-76
2024/02/08 01:41:24;;;;;;;15.68;7.78;;;;;;;;;;5086079;28;20085;-75
2024/02/08 01:43:49;;;;;;;11.27;6.75;;;;;;;;;;5089308;28;20032;-76
2024/02/08 01:46:15;;;;;;;10.95;6.40;;;;;;;;;;5087975;28;20028;-75
2024/02/08 01:48:44;;;;;;;13.27;6.00;;;;;;;;;;5088286;28;20032;-76
2024/02/08 01:51:12;;;;;;;10.98;5.95;;;;;;;;;;5082964;28;20052;-76
2024/02/08 01:53:39;;;;;;;15.80;7.45;;;;;;;;;;5081987;28;20073;-75
2024/02/08 01:56:05;;;;;;;9.77;6.10;;;;;;;;;;5089015;28;20032;-76
2024/02/08 01:58:30;;;;;;;13.93;6.43;;;;;;;;;;5090481;28;20024;-76
2024/02/08 02:01:06;;;;;;;9.85;6.00;;;;;;;;;;5083322;28;20460;-76
2024/02/08 02:03:31;;;;;;;11.57;6.65;;;;;;;;;;5085166;28;20327;-76
2024/02/08 02:05:56;;;;;;;11.90;7.07;;;;;;;;;;5081720;28;20455;-75
2024/02/08 02:08:22;;;;;;;10.65;6.15;;;;;;;;;;5087404;28;20055;-76
2024/02/08 02:10:55;;;;;;;11.25;6.28;;;;;;;;;;5089648;28;20028;-76
2024/02/08 02:13:21;;;;;;;11.38;6.82;;;;;;;;;;5085666;28;20035;-76
2024/02/08 02:15:47;;;;;;;10.70;6.38;;;;;;;;;;5080664;28;20032;-76
2024/02/08 02:18:16;;;;;;;10.60;6.43;;;;;;;;;;5086797;28;20025;-76
2024/02/08 02:20:41;;;;;;;19.42;9.35;;;;;;;;;;5081719;28;20040;-76
2024/02/08 02:23:09;;;;;;;16.55;8.32;;;;;;;;;;5083992;28;20036;-75
2024/02/08 02:25:35;;;;;;;13.10;6.45;;;;;;;;;;5087908;28;20043;-76
2024/02/08 02:28:03;;;;;;;14.48;6.63;;;;;;;;;;5087526;28;20028;-76
2024/02/08 02:30:29;;;;;;;10.48;6.22;;;;;;;;;;5086076;28;20504;-75
2024/02/08 02:32:56;;;;;;;12.55;6.85;;;;;;;;;;5082671;28;20046;-76
2024/02/08 02:35:22;;;;;;;12.00;6.30;;;;;;;;;;5083241;28;20036;-75
2024/02/08 02:37:49;;;;;;;15.15;7.18;;;;;;;;;;5086904;28;20038;-76
2024/02/08 02:40:22;;;;;;;12.93;7.45;;;;;;;;;;5087544;28;20042;-76
2024/02/08 02:42:51;;;;;;;13.10;6.93;;;;;;;;;;5085874;28;20036;-75
2024/02/08 02:45:23;;;;;;;12.48;6.25;;;;;;;;;;5084932;28;20040;-76
2024/02/08 02:47:49;;;;;;;12.10;6.38;;;;;;;;;;5083357;28;20037;-76
2024/02/08 02:50:17;;;;;;;12.90;7.20;;;;;;;;;;5081797;28;20404;-76
2024/02/08 02:52:43;;;;;;;12.65;6.40;;;;;;;;;;5089377;28;20027;-75
2024/02/08 02:55:09;;;;;;;13.27;6.30;;;;;;;;;;5086247;28;20035;-76
2024/02/08 02:57:35;;;;;;;15.48;7.55;;;;;;;;;;5088658;28;20485;-76
2024/02/08 03:00:03;;;;;;;13.48;7.40;;;;;;;;;;5080531;28;20097;-75
2024/02/08 03:02:28;;;;;;;14.98;7.45;;;;;;;;;;5084073;28;20032;-76
2024/02/08 03:04:53;;;;;;;10.77;6.50;;;;;;;;;;5082140;28;20413;-76
2024/02/08 03:07:18;;;;;;;10.48;6.13;;;;;;;;;;5086029;28;20412;-76
2024/02/08 03:09:43;;;;;;;9.88;5.60;;;;;;;;;;5086461;28;20524;-76
2024/02/08 03:12:12;;;;;;;12.70;7.00;;;;;;;;;;5084516;28;20027;-76
2024/02/08 03:14:37;;;;;;;13.18;6.70;;;;;;;;;;5082855;28;20028;-76
2024/02/08 03:17:03;;;;;;;9.85;6.07;;;;;;;;;;5082249;28;20053;-76
2024/02/08 03:19:34;;;;;;;10.10;6.68;;;;;;;;;;5086005;28;20020;-76
2024/02/08 03:22:07;;;;;;;7.97;4.72;;;;;;;;;;5085524;28;20032;-75
2024/02/08 03:24:35;;;;;;;9.57;5.85;;;;;;;;;;5085047;28;20373;-76
2024/02/08 03:27:01;;;;;;;10.85;5.18;;;;;;;;;;5084930;28;20038;-76
2024/02/08 03:29:26;;;;;;;10.80;5.72;;;;;;;;;;5085777;28;20032;-75
2024/02/08 03:31:52;;;;;;;10.18;5.07;;;;;;;;;;5087543;28;20103;-75
2024/02/08 03:34:29;;;;;;;10.73;5.82;;;;;;;;;;5086829;28;20063;-75
2024/02/08 03:36:56;;;;;;;10.10;6.13;;;;;;;;;;5087394;28;20032;-76
2024/02/08 03:39:27;;;;;;;8.90;5.55;;;;;;;;;;5084682;28;20048;-76
2024/02/08 03:41:59;;;;;;;9.57;5.95;;;;;;;;;;5081372;28;20103;-76
2024/02/08 03:44:24;;;;;;;12.77;5.45;;;;;;;;;;5082127;28;20024;-76
2024/02/08 03:46:53;;;;;;;10.68;5.22;;;;;;;;;;5085303;28;20529;-76
2024/02/08 03:49:19;;;;;;;9.63;6.25;;;;;;;;;;5087742;28;20036;-76
2024/02/08 03:51:45;;;;;;;9.68;5.72;;;;;;;;;;5085844;28;20046;-76
2024/02/08 03:54:16;;;;;;;10.10;5.57;;;;;;;;;;5083592;28;20039;-76
2024/02/08 03:56:41;;;;;;;9.20;4.95;;;;;;;;;;5081776;28;20484;-75
2024/02/08 03:59:11;;;;;;;12.13;5.60;;;;;;;;;;5082100;28;20065;-76
2024/02/08 04:01:37;;;;;;;13.60;6.78;;;;;;;;;;5088358;28;20040;-75
2024/02/08 04:04:12;;;;;;;10.73;5.63;;;;;;;;;;5086594;28;20032;-75
2024/02/08 04:07:00;;;;;;;9.43;5.97;;;;;;;;;;5084683;28;20042;-76
2024/02/08 04:09:35;;;;;;;11.60;5.95;;;;;;;;;;5074867;28;20019;-76
2024/02/08 04:53:43;;;;;;;14.35;7.80;;;;;;;;;;5085006;28;20115;-75
2024/02/08 04:56:09;;;;;;;13.75;8.32;;;;;;;;;;5086723;28;20116;-76
2024/02/08 04:58:35;;;;;;;15.63;8.95;;;;;;;;;;5091797;28;20111;-75
2024/02/08 05:01:03;;;;;;;18.25;9.20;;;;;;;;;;5087506;28;20036;-76
2024/02/08 05:03:28;;;;;;;14.38;8.60;;;;;;;;;;5088915;28;20039;-75
2024/02/08 05:05:54;;;;;;;18.55;9.35;;;;;;;;;;5083836;28;20033;-75
2024/02/08 05:08:19;;;;;;;21.17;11.15;;;;;;;;;;5086487;28;20107;-76
2024/02/08 05:10:45;;;;;;;17.40;9.18;;;;;;;;;;5087862;28;20035;-76
2024/02/08 05:13:13;;;;;;;14.63;8.13;;;;;;;;;;5088944;28;20036;-76
2024/02/08 05:15:38;;;;;;;17.17;8.50;;;;;;;;;;5077263;28;20056;-76
2024/02/08 05:18:04;;;;;;;16.08;7.70;;;;;;;;;;5086319;28;20067;-76
2024/02/08 05:20:29;;;;;;;16.65;9.13;;;;;;;;;;5085519;28;20032;-76
2024/02/08 05:22:56;;;;;;;14.95;8.50;;;;;;;;;;5079099;28;20036;-76
2024/02/08 05:25:22;;;;;;;15.88;9.48;;;;;;;;;;5085906;28;20036;-76
2024/02/08 05:27:47;;;;;;;15.13;9.00;;;;;;;;;;5086595;28;20052;-76
2024/02/08 05:30:15;;;;;;;14.88;8.48;;;;;;;;;;5086290;28;20479;-76
2024/02/08 05:32:43;;;;;;;18.20;9.40;;;;;;;;;;5086115;28;20081;-76
2024/02/08 05:35:13;;;;;;;16.98;9.40;;;;;;;;;;5085960;28;20393;-76
2024/02/08 05:37:38;;;;;;;16.38;8.80;;;;;;;;;;5084703;28;20060;-76
2024/02/08 05:40:03;;;;;;;15.88;8.82;;;;;;;;;;5074461;28;20501;-76
2024/02/08 05:42:28;;;;;;;20.00;10.23;;;;;;;;;;5076986;28;20089;-76
2024/02/08 05:45:18;;;;;;;16.50;9.65;;;;;;;;;;5076114;28;20036;-75
2024/02/08 05:47:39;;;;;;;19.30;10.27;;;;;;;;;;5075778;28;20032;-75
2024/02/08 05:50:06;;;;;;;18.27;9.15;;;;;;;;;;5077358;28;20123;-76
2024/02/08 05:52:33;;;;;;;18.02;9.73;;;;;;;;;;5081000;28;20036;-76
2024/02/08 05:54:58;;;;;;;15.30;9.38;;;;;;;;;;5079521;28;20107;-76
2024/02/08 05:57:24;;;;;;;15.63;8.95;;;;;;;;;;5078170;28;20481;-76
2024/02/08 05:59:53;;;;;;;16.73;9.45;;;;;;;;;;5077530;28;20032;-76
2024/02/08 06:02:24;;;;;;;17.80;9.88;;;;;;;;;;5082888;28;20456;-76
2024/02/08 06:04:59;;;;;;;21.65;9.82;;;;;;;;;;5079816;28;20447;-76
2024/02/08 06:07:29;;;;;;;15.82;8.27;;;;;;;;;;5079193;28;20066;-76
2024/02/08 06:10:07;;;;;;;18.10;9.35;;;;;;;;;;5077667;28;20043;-76
2024/02/08 06:12:51;;;;;;;15.40;7.85;;;;;;;;;;5083063;28;20016;-76
2024/02/08 06:15:24;;;;;;;14.07;7.63;;;;;;;;;;5082950;28;20059;-76
2024/02/08 06:18:03;;;;;;;12.88;6.90;;;;;;;;;;5081848;28;20111;-76
2024/02/08 06:20:43;;;;;;;16.60;7.72;;;;;;;;;;5085682;28;20028;-76
2024/02/08 06:23:22;;;;;;;17.15;8.18;;;;;;;;;;5087412;28;20025;-76
2024/02/08 06:26:27;;;;;;;12.30;7.00;;;;;;;;;;5084036;28;20120;-76
2024/02/08 06:28:53;;;;;;;12.48;6.95;;;;;;;;;;5085439;28;20039;-76
2024/02/08 06:31:18;;;;;;;15.30;8.07;;;;;;;;;;5083316;28;20028;-75
2024/02/08 06:36:30;;;;;;;15.55;8.68;;;;;;;;;;5084961;28;20373;-75
2024/02/08 06:38:55;;;;;;;15.40;7.57;;;;;;;;;;5086445;28;20043;-75
2024/02/08 06:41:51;;;;;;;18.08;8.07;;;;;;;;;;5084880;28;20024;-76
2024/02/08 06:45:24;;;;;;;16.13;6.93;;;;;;;;;;5077677;28;20036;-76
2024/02/08 06:47:18;;;;;;;11.68;6.97;;;;;;;;;;5077572;28;20497;-76
2024/02/08 07:39:30;;;;;;;17.48;9.48;;;;;;;;;;5081203;28;20067;-76
2024/02/08 07:41:55;;;;;;;21.00;11.27;;;;;;;;;;5078758;28;20078;-76
2024/02/08 07:44:22;;;;;;;18.35;10.98;;;;;;;;;;5082245;28;20023;-76
2024/02/08 07:46:48;;;;;;;16.60;10.00;;;;;;;;;;5077319;28;20040;-76
2024/02/08 07:49:15;;;;;;;18.67;9.20;;;;;;;;;;5078926;28;20033;-76
2024/02/08 07:51:50;;;;;;;20.23;9.63;;;;;;;;;;5082603;28;20488;-75
2024/02/08 07:54:20;;;;;;;18.38;9.27;;;;;;;;;;5081435;28;20032;-76
2024/02/08 07:56:49;;;;;;;17.63;9.82;;;;;;;;;;5086018;28;20048;-76
2024/02/08 07:59:26;;;;;;;16.48;9.13;;;;;;;;;;5087327;28;20048;-76
2024/02/08 08:01:53;;;;;;;17.73;10.55;;;;;;;;;;5084493;28;20492;-76
2024/02/08 08:04:41;;;;;;;22.13;11.23;;;;;;;;;;5073687;28;20504;-76
2024/02/08 08:07:09;;;;;;;23.55;12.20;;;;;;;;;;5073782;28;20046;-76
2024/02/08 08:09:36;;;;;;;21.52;11.13;;;;;;;;;;5079939;28;20038;-76
2024/02/08 08:12:04;;;;;;;20.00;11.23;;;;;;;;;;5085526;28;20093;-75
2024/02/08 08:15:13;;;;;;;14.65;8.82;;;;;;;;;;5087247;28;20035;-76
2024/02/08 08:19:51;;;;;;;18.00;9.38;;;;;;;;;;5086907;28;20032;-76
2024/02/08 08:22:50;;;;;;;16.85;9.55;;;;;;;;;;5085979;28;20036;-76
2024/02/08 08:30:27;;;;;;;17.73;10.48;;;;;;;;;;5088735;28;20087;-76
2024/02/08 08:33:08;;;;;;;18.38;9.60;;;;;;;;;;5088380;28;20086;-76
2024/02/08 08:38:28;;;;;;;12.63;7.65;;;;;;;;;;5085327;28;20067;-76
2024/02/08 08:41:00;;;;;;;13.50;7.65;;;;;;;;;;5081285;28;20028;-75
2024/02/08 08:43:25;;;;;;;12.27;7.10;;;;;;;;;;5080442;28;20032;-76
2024/02/08 08:45:51;;;;;;;14.63;7.72;;;;;;;;;;5080611;28;20043;-76
2024/02/08 08:48:18;;;;;;;13.70;7.90;;;;;;;;;;5083840;28;20064;-75
2024/02/08 08:50:49;;;;;;;15.13;9.10;;;;;;;;;;5073201;28;20040;-76
2024/02/08 08:53:19;;;;;;;15.57;8.45;;;;;;;;;;5089328;28;20487;-75
2024/02/08 08:55:49;;;;;;;14.80;7.95;;;;;;;;;;5090810;28;20133;-76
2024/02/08 08:58:15;;;;;;;14.68;8.52;;;;;;;;;;5088099;28;20040;-76
2024/02/08 09:00:47;;;;;;;13.35;7.95;;;;;;;;;;5083504;28;20094;-76
2024/02/08 09:03:33;;;;;;;15.70;7.63;;;;;;;;;;5078149;28;20531;-76
2024/02/08 09:05:59;;;;;;;13.35;8.48;;;;;;;;;;5084102;28;20040;-76
2024/02/08 09:08:33;;;;;;;17.17;9.02;;;;;;;;;;5091107;28;20587;-76
2024/02/08 09:11:03;;;;;;;16.83;9.45;;;;;;;;;;5088188;28;20035;-77
2024/02/08 09:13:28;;;;;;;14.23;9.25;;;;;;;;;;5086116;28;20032;-76
2024/02/08 09:16:29;;;;;;;16.38;8.20;;;;;;;;;;5084943;28;20028;-76
2024/02/08 09:19:04;;;;;;;14.00;7.75;;;;;;;;;;5088321;28;20027;-76
2024/02/08 09:21:32;;;;;;;16.88;8.43;;;;;;;;;;5086296;28;20119;-77
2024/02/08 09:24:03;;;;;;;16.95;9.75;;;;;;;;;;5083048;28;20549;-76
2024/02/08 09:29:38;;;;;;;13.48;7.82;;;;;;;;;;5088827;28;20078;-77
2024/02/08 09:32:14;;;;;;;17.38;8.15;;;;;;;;;;5082620;28;20155;-76
2024/02/08 09:34:40;;;;;;;12.60;7.72;;;;;;;;;;5086126;28;20028;-77
2024/02/08 09:37:06;;;;;;;10.40;7.32;;;;;;;;;;5081366;28;20032;-77
2024/02/08 09:39:53;;;;;;;14.57;8.20;;;;;;;;;;5082063;28;20060;-77
2024/02/08 09:42:17;;;;;;;12.13;6.93;;;;;;;;;;5079059;28;20075;-76
2024/02/08 09:44:49;;;;;;;15.75;7.38;;;;;;;;;;5073222;28;20067;-76
2024/02/08 09:47:25;;;;;;;12.95;7.57;;;;;;;;;;5084624;28;20039;-76
2024/02/08 09:50:00;;;;;;;12.60;7.53;;;;;;;;;;5090001;28;20024;-76
2024/02/08 09:52:30;;;;;;;12.65;7.88;;;;;;;;;;5088630;28;20032;-76
2024/02/08 09:55:06;;;;;;;13.77;8.48;;;;;;;;;;5086898;28;20097;-76
2024/02/08 09:57:45;;;;;;;14.40;9.25;;;;;;;;;;5084482;28;20035;-75
2024/02/08 10:00:34;;;;;;;15.85;8.95;;;;;;;;;;5081773;28;20036;-75
2024/02/08 10:03:03;;;;;;;22.00;11.30;;;;;;;;;;5087539;28;20036;-75
2024/02/08 10:05:50;;;;;;;21.45;12.55;;;;;;;;;;5081793;28;20051;-75
2024/02/08 10:08:28;;;;;;;14.15;8.38;;;;;;;;;;5077972;28;20036;-75
2024/02/08 10:11:10;;;;;;;11.43;7.40;;;;;;;;;;5074233;28;20040;-75
2024/02/08 10:13:56;;;;;;;12.25;7.38;;;;;;;;;;5082253;28;20024;-74
2024/02/08 10:16:41;;;;;;;13.55;7.65;;;;;;;;;;5085979;28;20481;-75
2024/02/08 10:19:23;;;;;;;13.63;6.85;;;;;;;;;;5085491;28;20040;-75
2024/02/08 10:21:56;;;;;;;9.00;5.95;;;;;;;;;;5084977;28;20032;-75
2024/02/08 10:27:19;;;;;;;13.32;8.10;;;;;;;;;;5078312;28;20029;-75
2024/02/08 10:30:07;;;;;;;13.57;7.80;;;;;;;;;;5083408;28;20047;-75
2024/02/08 10:32:33;;;;;;;14.68;7.32;;;;;;;;;;5081193;28;20028;-75
2024/02/08 10:35:13;;;;;;;10.93;6.28;;;;;;;;;;5079367;28;20085;-75
2024/02/08 10:37:47;;;;;;;13.02;7.93;;;;;;;;;;5070837;28;20032;-75
2024/02/08 10:40:32;;;;;;;12.32;7.68;;;;;;;;;;5085131;28;20100;-75
2024/02/08 10:42:58;;;;;;;13.70;7.68;;;;;;;;;;5083306;28;20327;-75
2024/02/08 10:45:24;;;;;;;10.35;6.38;;;;;;;;;;5081911;28;20039;-75
2024/02/08 10:47:51;;;;;;;11.43;6.50;;;;;;;;;;5079678;28;20438;-75
2024/02/08 10:50:20;;;;;;;12.30;6.88;;;;;;;;;;5077088;28;20034;-75
2024/02/08 10:52:48;;;;;;;12.07;6.47;;;;;;;;;;5076970;28;20040;-75
2024/02/08 10:55:18;;;;;;;11.68;7.13;;;;;;;;;;5071751;28;20021;-75
2024/02/08 10:58:21;;;;;;;9.95;6.55;;;;;;;;;;5086396;28;20508;-75
2024/02/08 11:08:33;;;;;;;11.57;6.65;;;;;;;;;;5085303;28;20032;-73
2024/02/08 11:11:03;;;;;;;13.05;6.53;;;;;;;;;;5067535;28;20451;-75
2024/02/08 11:13:29;;;;;;;10.27;6.10;;;;;;;;;;5084431;28;20028;-74
2024/02/08 11:16:04;;;;;;;10.95;7.07;;;;;;;;;;5088335;28;20028;-74
2024/02/08 11:18:39;;;;;;;10.30;6.93;;;;;;;;;;5085902;28;20028;-75
2024/02/08 11:21:04;;;;;;;10.52;6.18;;;;;;;;;;5081006;28;20028;-75
2024/02/08 11:23:41;;;;;;;10.63;7.10;;;;;;;;;;5079999;28;20542;-75
2024/02/08 11:26:10;;;;;;;11.45;6.88;;;;;;;;;;5078712;28;20691;-75
2024/02/08 11:28:50;;;;;;;13.45;8.02;;;;;;;;;;5085653;28;20550;-75
2024/02/08 11:31:16;;;;;;;11.57;7.20;;;;;;;;;;5083956;28;20033;-75
2024/02/08 11:33:42;;;;;;;9.57;6.07;;;;;;;;;;5089390;28;20031;-75
2024/02/08 11:36:12;;;;;;;11.13;5.72;;;;;;;;;;5071228;28;20020;-75
2024/02/08 11:38:40;;;;;;;11.73;6.95;;;;;;;;;;5085148;28;20046;-74
2024/02/08 11:41:14;;;;;;;10.30;6.40;;;;;;;;;;5069598;28;20035;-75
2024/02/08 11:44:02;;;;;;;9.55;5.68;;;;;;;;;;5082895;28;20032;-74
2024/02/08 11:46:37;;;;;;;10.23;6.32;;;;;;;;;;5076385;28;20043;-74
2024/02/08 11:49:14;;;;;;;12.73;6.32;;;;;;;;;;5077871;28;20131;-75
2024/02/08 11:51:41;;;;;;;10.85;6.55;;;;;;;;;;5085921;28;20025;-75
2024/02/08 11:54:11;;;;;;;9.73;6.10;;;;;;;;;;5089471;28;20500;-74
2024/02/08 11:56:48;;;;;;;11.90;5.82;;;;;;;;;;5075843;28;20492;-75
2024/02/08 11:59:14;;;;;;;8.82;5.68;;;;;;;;;;5090132;28;20044;-75
2024/02/08 12:01:43;;;;;;;8.60;5.03;;;;;;;;;;5088423;28;20438;-77
2024/02/08 12:04:08;;;;;;;8.50;5.20;;;;;;;;;;5081646;28;20090;-75
2024/02/08 12:06:34;;;;;;;9.98;5.80;;;;;;;;;;5079537;28;20497;-75
2024/02/08 12:09:03;;;;;;;8.32;5.55;;;;;;;;;;5087332;28;20033;-75
2024/02/08 12:11:32;;;;;;;11.32;5.60;;;;;;;;;;5090315;28;20039;-75
2024/02/08 12:14:01;;;;;;;10.68;5.38;;;;;;;;;;5087133;28;20025;-75
2024/02/08 12:16:26;;;;;;;8.55;5.43;;;;;;;;;;5083807;28;20035;-75
2024/02/08 12:18:56;;;;;;;10.30;6.47;;;;;;;;;;5088164;28;20028;-75
2024/02/08 12:21:23;;;;;;;8.57;5.28;;;;;;;;;;5087354;28;20516;-75
2024/02/08 12:23:54;;;;;;;9.57;5.38;;;;;;;;;;5088862;28;20400;-75
2024/02/08 12:26:22;;;;;;;9.43;5.78;;;;;;;;;;5088427;28;20447;-74
2024/02/08 12:28:50;;;;;;;8.82;5.43;;;;;;;;;;5090719;28;20040;-75
2024/02/08 12:31:18;;;;;;;10.20;6.28;;;;;;;;;;5084472;28;20112;-75
2024/02/08 12:33:45;;;;;;;9.18;5.47;;;;;;;;;;5084931;28;20032;-75
2024/02/08 12:36:16;;;;;;;7.60;4.72;;;;;;;;;;5077540;28;20051;-75
2024/02/08 12:38:42;;;;;;;10.23;5.25;;;;;;;;;;5083008;28;20089;-75
2024/02/08 12:41:08;;;;;;;8.63;5.25;;;;;;;;;;5081202;28;20059;-74
2024/02/08 12:43:34;;;;;;;9.52;5.20;;;;;;;;;;5087279;28;20067;-75
2024/02/08 12:46:01;;;;;;;6.93;4.53;;;;;;;;;;5083635;28;20029;-75
2024/02/08 12:48:29;;;;;;;8.13;4.25;;;;;;;;;;5086557;28;20063;-74
2024/02/08 12:51:03;;;;;;;8.25;4.75;;;;;;;;;;5091333;28;20024;-75
2024/02/08 12:53:29;;;;;;;8.13;4.60;;;;;;;;;;5085429;28;20021;-75
2024/02/08 12:56:03;;;;;;;9.75;5.35;;;;;;;;;;5074442;28;20041;-75
2024/02/08 12:58:28;;;;;;;13.35;5.45;;;;;;;;;;5071207;28;20028;-75
2024/02/08 13:00:57;;;;;;;7.43;4.75;;;;;;;;;;5081993;28;20040;-75
2024/02/08 13:03:24;;;;;;;7.75;4.53;;;;;;;;;;5083137;28;20400;-75
2024/02/08 13:05:50;;;;;;;7.80;4.68;;;;;;;;;;5078994;28;20516;-75
2024/02/08 13:08:17;;;;;;;8.85;4.72;;;;;;;;;;5082860;28;20161;-75
2024/02/08 13:10:42;;;;;;;10.07;5.38;;;;;;;;;;5075298;28;20024;-74
2024/02/08 13:13:10;;;;;;;9.70;5.25;;;;;;;;;;5080795;28;20389;-75
2024/02/08 13:15:36;;;;;;;9.25;6.13;;;;;;;;;;5082315;28;20035;-75
2024/02/08 13:18:02;;;;;;;13.07;6.85;;;;;;;;;;5084991;28;20043;-75
2024/02/08 13:20:27;;;;;;;10.52;6.90;;;;;;;;;;5079637;28;20116;-75
2024/02/08 13:22:54;;;;;;;9.63;6.57;;;;;;;;;;5083885;28;20538;-74
2024/02/08 13:25:20;;;;;;;10.80;5.95;;;;;;;;;;5076750;28;20040;-75
2024/02/08 13:27:45;;;;;;;12.50;8.07;;;;;;;;;;5085086;28;20040;-75
2024/02/08 13:30:16;;;;;;;12.82;7.85;;;;;;;;;;5083270;28;20063;-74
2024/02/08 13:32:42;;;;;;;12.40;7.90;;;;;;;;;;5085247;28;20403;-75
2024/02/08 13:35:07;;;;;;;11.18;7.10;;;;;;;;;;5087355;28;20559;-75
2024/02/08 13:37:35;;;;;;;8.07;5.07;;;;;;;;;;5086503;28;20060;-75
2024/02/08 13:40:03;;;;;;;8.05;5.32;;;;;;;;;;5086145;28;20064;-75
2024/02/08 13:42:29;;;;;;;10.15;5.68;;;;;;;;;;5076610;28;20106;-75
2024/02/08 13:44:58;;;;;;;10.30;5.95;;;;;;;;;;5082192;28;20361;-75
2024/02/08 13:47:25;;;;;;;8.77;5.28;;;;;;;;;;5088878;28;20024;-75
2024/02/08 13:49:52;;;;;;;10.63;6.10;;;;;;;;;;5085073;28;20040;-75
2024/02/08 13:52:18;;;;;;;9.52;6.15;;;;;;;;;;5084847;28;20033;-75
2024/02/08 13:54:48;;;;;;;8.77;6.18;;;;;;;;;;5084707;28;20043;-75
2024/02/08 13:57:14;;;;;;;8.57;5.55;;;;;;;;;;5085055;28;20476;-75
2024/02/08 13:59:45;;;;;;;8.65;5.85;;;;;;;;;;5090595;28;20149;-76
2024/02/08 14:02:13;;;;;;;10.63;7.30;;;;;;;;;;5089423;28;20039;-75
2024/02/08 14:04:39;;;;;;;10.23;6.45;;;;;;;;;;5085730;28;20032;-75
2024/02/08 14:07:04;;;;;;;9.82;7.32;;;;;;;;;;5082730;28;20040;-75
2024/02/08 14:09:33;;;;;;;10.25;6.97;;;;;;;;;;5086965;28;20077;-75
2024/02/08 14:11:59;;;;;;;9.73;6.20;;;;;;;;;;5078801;28;20029;-75
2024/02/08 14:14:31;;;;;;;13.48;8.25;;;;;;;;;;5088915;28;20105;-75
2024/02/08 14:16:58;;;;;;;12.63;7.15;;;;;;;;;;5084542;28;20036;-76
2024/02/08 14:19:33;;;;;;;10.57;7.28;;;;;;;;;;5087509;28;20481;-75
2024/02/08 14:22:05;;;;;;;7.97;5.68;;;;;;;;;;5081667;28;20036;-75
2024/02/08 14:24:35;;;;;;;14.85;6.57;;;;;;;;;;5083102;28;20028;-75
2024/02/08 14:27:05;;;;;;;8.45;5.90;;;;;;;;;;5086880;28;20047;-76
2024/02/08 14:29:30;;;;;;;9.80;6.38;;;;;;;;;;5089249;28;20024;-75
2024/02/08 14:31:55;;;;;;;11.02;5.85;;;;;;;;;;5083809;28;20547;-75
2024/02/08 14:34:25;;;;;;;9.18;5.53;;;;;;;;;;5085088;28;20404;-75
2024/02/08 14:36:50;;;;;;;9.10;6.25;;;;;;;;;;5083234;28;20399;-75
2024/02/08 14:39:26;;;;;;;10.20;6.88;;;;;;;;;;5082996;28;20043;-75
2024/02/08 14:41:53;;;;;;;11.63;7.35;;;;;;;;;;5089367;28;20028;-75
2024/02/08 14:44:18;;;;;;;12.48;7.78;;;;;;;;;;5086303;28;20036;-75
2024/02/08 14:46:46;;;;;;;19.98;11.45;;;;;;;;;;5086699;28;20092;-75
2024/02/08 14:49:23;;;;;;;13.85;9.30;;;;;;;;;;5084384;28;20033;-75
2024/02/08 14:51:48;;;;;;;10.75;7.32;;;;;;;;;;5082838;28;20023;-77
2024/02/08 14:54:13;;;;;;;10.13;6.93;;;;;;;;;;5083228;28;20442;-76
2024/02/08 14:56:41;;;;;;;8.65;5.70;;;;;;;;;;5088981;28;20020;-76
2024/02/08 14:59:09;;;;;;;7.97;5.30;;;;;;;;;;5086179;28;20028;-75
2024/02/08 15:01:38;;;;;;;8.93;5.30;;;;;;;;;;5079147;28;20040;-75
2024/02/08 15:04:15;;;;;;;7.70;4.28;;;;;;;;;;5076120;28;20044;-76
2024/02/08 15:06:42;;;;;;;9.50;5.38;;;;;;;;;;5076404;28;20052;-75
2024/02/08 15:12:09;;;;;;;11.18;6.65;;;;;;;;;;5081231;28;20031;-76
2024/02/08 15:14:37;;;;;;;8.55;5.10;;;;;;;;;;5077580;28;20020;-76
2024/02/08 15:17:18;;;;;;;8.95;5.35;;;;;;;;;;5084787;28;20068;-76
2024/02/08 15:19:46;;;;;;;8.90;5.03;;;;;;;;;;5079623;28;20040;-76
2024/02/08 15:22:18;;;;;;;8.43;4.68;;;;;;;;;;5078072;28;20028;-76
2024/02/08 15:24:46;;;;;;;9.67;4.83;;;;;;;;;;5088172;28;20035;-76
2024/02/08 15:27:18;;;;;;;10.63;5.80;;;;;;;;;;5086568;28;20314;-76
2024/02/08 15:29:45;;;;;;;10.93;6.73;;;;;;;;;;5085384;28;20040;-77
2024/02/08 15:32:17;;;;;;;8.82;5.15;;;;;;;;;;5085050;28;20276;-76
2024/02/08 15:37:31;;;;;;;9.25;4.80;;;;;;;;;;5081054;28;20039;-76
2024/02/08 15:40:09;;;;;;;10.95;6.03;;;;;;;;;;5080626;28;20060;-76
2024/02/08 15:42:37;;;;;;;9.77;6.32;;;;;;;;;;5083368;28;20122;-76
2024/02/08 15:45:10;;;;;;;9.73;5.93;;;;;;;;;;5087486;28;20534;-76
2024/02/08 15:47:37;;;;;;;8.63;5.40;;;;;;;;;;5082072;28;20131;-76
2024/02/08 15:50:14;;;;;;;8.98;4.93;;;;;;;;;;5085832;28;20374;-76
2024/02/08 15:52:42;;;;;;;6.93;4.82;;;;;;;;;;5085229;28;20051;-76
2024/02/08 15:55:14;;;;;;;8.48;4.50;;;;;;;;;;5086226;28;20174;-76
2024/02/08 15:57:45;;;;;;;7.75;4.57;;;;;;;;;;5083547;28;20480;-76
2024/02/08 16:03:01;;;;;;;8.52;5.18;;;;;;;;;;5086798;28;20031;-76
2024/02/08 16:05:29;;;;;;;8.90;4.63;;;;;;;;;;5088255;28;20451;-75
2024/02/08 16:08:05;;;;;;;8.90;5.50;;;;;;;;;;5085674;28;20036;-76
2024/02/08 16:10:31;;;;;;;7.32;4.72;;;;;;;;;;5082743;28;20051;-76
2024/02/08 16:13:05;;;;;;;10.43;5.60;;;;;;;;;;5082136;28;20036;-76
2024/02/08 16:15:49;;;;;;;8.80;5.25;;;;;;;;;;5083187;28;20103;-76
2024/02/08 16:18:22;;;;;;;10.48;5.38;;;;;;;;;;5086354;28;20092;-76
2024/02/08 16:20:52;;;;;;;10.45;5.82;;;;;;;;;;5086814;28;20499;-76
2024/02/08 16:23:20;;;;;;;10.70;5.30;;;;;;;;;;5082817;28;20056;-76
2024/02/08 16:25:47;;;;;;;11.05;5.18;;;;;;;;;;5074474;28;20113;-76
2024/02/08 16:28:16;;;;;;;9.20;4.85;;;;;;;;;;5072857;28;20039;-76
2024/02/08 16:31:00;;;;;;;9.15;5.43;;;;;;;;;;5076211;28;20065;-76
2024/02/08 16:33:47;;;;;;;12.35;5.78;;;;;;;;;;5084721;28;20033;-75
2024/02/08 16:38:56;;;;;;;10.65;5.80;;;;;;;;;;5075936;28;20044;-76
2024/02/08 16:41:23;;;;;;;11.50;5.13;;;;;;;;;;5080449;28;20054;-75
2024/02/08 16:43:49;;;;;;;10.30;6.03;;;;;;;;;;5081207;28;20036;-75
2024/02/08 16:46:21;;;;;;;14.30;6.30;;;;;;;;;;5094919;28;20024;-75
2024/02/08 16:48:47;;;;;;;11.63;6.20;;;;;;;;;;5091290;28;20067;-75
2024/02/08 16:51:16;;;;;;;9.70;5.05;;;;;;;;;;5085491;28;20070;-75
2024/02/08 16:53:43;;;;;;;8.48;4.82;;;;;;;;;;5078892;28;20063;-75
2024/02/08 16:56:12;;;;;;;10.45;5.10;;;;;;;;;;5079109;28;20025;-75
2024/02/08 16:58:43;;;;;;;11.60;5.22;;;;;;;;;;5079931;28;20032;-75